Time;durP1;ratioP1;P1;durP2;ratioP2;P2;SDS_P1;SDS_P2;PMS_P1;PMS_P2;Temp;Humidity;BMP_temperature;BMP_pressure;BME280_temperature;BME280_humidity;BME280_pressure;Samples;Min_cycle;Max_cycle;Signal;HPM_P1;HPM_P2
2021/08/06 00:00:00;;;;;;;0.00;0.00;;;23.00;83.20;;;;;;5052765;28;20025;-84
2021/08/06 00:02:26;;;;;;;0.00;0.00;;;22.90;83.40;;;;;;5036062;28;20401;-84
2021/08/06 00:04:52;;;;;;;0.00;0.00;;;22.90;84.00;;;;;;5038692;28;20044;-85
2021/08/06 00:07:19;;;;;;;0.00;0.00;;;22.90;84.30;;;;;;5056474;28;20393;-85
2021/08/06 00:09:44;;;;;;;0.00;0.00;;;22.80;84.60;;;;;;5039176;28;20041;-84
2021/08/06 00:12:10;;;;;;;0.00;0.00;;;22.90;84.70;;;;;;5039391;28;20055;-84
2021/08/06 00:14:36;;;;;;;0.00;0.00;;;22.90;84.60;;;;;;5057066;28;20107;-84
2021/08/06 00:17:02;;;;;;;0.00;0.00;;;22.90;84.50;;;;;;5038755;28;20033;-85
2021/08/06 00:19:28;;;;;;;0.00;0.00;;;23.00;84.50;;;;;;5056359;28;20188;-85
2021/08/06 00:21:54;;;;;;;0.00;0.00;;;23.00;84.70;;;;;;5056947;28;20472;-84
2021/08/06 00:24:19;;;;;;;0.00;0.00;;;23.00;84.80;;;;;;5057022;28;20067;-86
2021/08/06 00:26:45;;;;;;;0.00;0.00;;;23.00;85.10;;;;;;5057419;28;20087;-85
2021/08/06 00:29:11;;;;;;;0.00;0.00;;;23.00;85.40;;;;;;5053950;28;20040;-84
2021/08/06 00:31:38;;;;;;;0.00;0.00;;;22.90;85.60;;;;;;5081639;28;20049;-85
2021/08/06 00:34:03;;;;;;;0.00;0.00;;;22.90;86.40;;;;;;5057669;28;20147;-88
2021/08/06 00:36:29;;;;;;;0.00;0.00;;;23.00;85.90;;;;;;5045521;28;20115;-89
2021/08/06 00:38:55;;;;;;;0.00;0.00;;;22.90;86.20;;;;;;5038057;28;20083;-85
2021/08/06 00:41:21;;;;;;;0.00;0.00;;;22.90;87.50;;;;;;5038176;28;20041;-85
2021/08/06 00:43:46;;;;;;;0.00;0.00;;;22.90;87.50;;;;;;5038090;28;20049;-85
2021/08/06 00:46:15;;;;;;;0.00;0.00;;;22.80;87.70;;;;;;5038376;28;20037;-84
2021/08/06 00:48:43;;;;;;;0.00;0.00;;;22.80;88.00;;;;;;5038178;28;20037;-84
2021/08/06 00:51:08;;;;;;;0.00;0.00;;;22.80;88.20;;;;;;5056106;28;20045;-87
2021/08/06 00:53:37;;;;;;;0.00;0.00;;;22.70;88.20;;;;;;5038144;28;20121;-84
2021/08/06 00:56:04;;;;;;;0.00;0.00;;;22.70;88.50;;;;;;5039578;28;20048;-84
2021/08/06 00:58:30;;;;;;;0.00;0.00;;;22.60;88.90;;;;;;5038020;28;20021;-84
2021/08/06 01:00:55;;;;;;;0.00;0.00;;;22.50;89.40;;;;;;5037924;28;20037;-84
2021/08/06 01:03:27;;;;;;;0.00;0.00;;;22.50;90.00;;;;;;5037757;28;20040;-84
2021/08/06 01:05:59;;;;;;;0.00;0.00;;;22.40;90.20;;;;;;5037926;28;20041;-84
2021/08/06 01:08:49;;;;;;;0.00;0.00;;;22.40;90.50;;;;;;5055622;28;20037;-88
2021/08/06 01:11:16;;;;;;;0.00;0.00;;;22.30;90.70;;;;;;5000263;28;20544;-85
2021/08/06 01:13:47;;;;;;;0.00;0.00;;;22.30;90.90;;;;;;5036967;28;20044;-85
2021/08/06 01:16:13;;;;;;;0.00;0.00;;;22.20;91.10;;;;;;5037811;28;20470;-84
2021/08/06 01:19:06;;;;;;;0.00;0.00;;;22.20;91.40;;;;;;5055502;28;20040;-87
2021/08/06 01:21:42;;;;;;;0.00;0.00;;;22.20;91.50;;;;;;5037937;28;20040;-85
2021/08/06 01:24:13;;;;;;;0.00;0.00;;;22.20;91.80;;;;;;5037573;28;20135;-84
2021/08/06 01:26:40;;;;;;;0.00;0.00;;;22.10;92.10;;;;;;5057077;28;20029;-85
2021/08/06 01:29:07;;;;;;;0.08;0.08;;;22.10;92.40;;;;;;5039787;28;20060;-84
2021/08/06 01:31:32;;;;;;;0.00;0.00;;;22.10;92.80;;;;;;5080421;28;20044;-83
2021/08/06 01:33:58;;;;;;;0.00;0.00;;;22.00;93.00;;;;;;5063169;28;20025;-84
2021/08/06 01:36:24;;;;;;;0.00;0.00;;;22.00;93.10;;;;;;5052598;28;20041;-84
2021/08/06 01:38:51;;;;;;;0.00;0.00;;;22.00;93.30;;;;;;5037047;28;20509;-84
2021/08/06 01:41:20;;;;;;;0.00;0.00;;;22.00;93.60;;;;;;5055076;28;20501;-84
2021/08/06 01:44:10;;;;;;;0.03;0.03;;;21.90;94.00;;;;;;5036687;28;20056;-85
2021/08/06 01:46:50;;;;;;;0.10;0.10;;;21.90;94.50;;;;;;5009849;28;20048;-84
2021/08/06 01:49:39;;;;;;;0.00;0.00;;;22.00;94.90;;;;;;5037008;28;20029;-83
2021/08/06 01:52:20;;;;;;;0.00;0.00;;;22.00;94.80;;;;;;5037093;28;20486;-85
2021/08/06 01:54:50;;;;;;;0.00;0.00;;;22.10;94.70;;;;;;5036939;28;20131;-88
2021/08/06 01:57:16;;;;;;;0.00;0.00;;;22.20;94.40;;;;;;5061658;28;20075;-84
2021/08/06 01:59:43;;;;;;;0.00;0.00;;;22.20;94.40;;;;;;5054710;28;20470;-85
2021/08/06 02:02:10;;;;;;;0.03;0.03;;;22.20;94.60;;;;;;5037052;28;20182;-88
2021/08/06 02:04:36;;;;;;;0.05;0.05;;;22.20;95.20;;;;;;5054719;28;20074;-84
2021/08/06 02:07:03;;;;;;;0.00;0.00;;;22.10;95.40;;;;;;5038029;28;20025;-84
2021/08/06 02:09:29;;;;;;;0.00;0.00;;;22.10;95.50;;;;;;5039945;28;20013;-85
2021/08/06 02:11:54;;;;;;;0.00;0.00;;;22.10;95.60;;;;;;5057635;28;20033;-86
2021/08/06 02:14:22;;;;;;;0.00;0.00;;;22.00;95.80;;;;;;5036797;28;20063;-88
2021/08/06 02:16:50;;;;;;;0.00;0.00;;;22.00;96.20;;;;;;5036536;28;20033;-84
2021/08/06 02:19:20;;;;;;;0.00;0.00;;;21.90;96.70;;;;;;5036515;28;20075;-87
2021/08/06 02:21:50;;;;;;;0.00;0.00;;;21.90;97.00;;;;;;5054134;28;20032;-85
2021/08/06 02:24:15;;;;;;;0.00;0.00;;;21.90;97.40;;;;;;5036385;28;20053;-88
2021/08/06 02:26:44;;;;;;;0.00;0.00;;;21.90;97.60;;;;;;5035990;28;20444;-85
2021/08/06 02:29:13;;;;;;;0.10;0.10;;;21.80;98.30;;;;;;5036170;28;20045;-85
2021/08/06 02:31:42;;;;;;;0.00;0.00;;;21.80;98.30;;;;;;5036485;28;20032;-86
2021/08/06 02:34:09;;;;;;;0.00;0.00;;;21.80;99.00;;;;;;5036214;28;20033;-85
2021/08/06 02:36:35;;;;;;;0.05;0.05;;;21.80;99.30;;;;;;5036017;28;20040;-84
2021/08/06 02:39:03;;;;;;;0.05;0.05;;;21.80;99.30;;;;;;5054116;28;20033;-85
2021/08/06 02:41:29;;;;;;;0.10;0.10;;;21.80;99.90;;;;;;5036052;28;20029;-84
2021/08/06 02:43:55;;;;;;;0.00;0.00;;;21.80;99.90;;;;;;5053984;28;20055;-86
2021/08/06 02:46:21;;;;;;;0.00;0.00;;;21.80;99.90;;;;;;5035928;28;20112;-84
2021/08/06 02:48:47;;;;;;;0.00;0.00;;;21.80;99.90;;;;;;5036061;28;20041;-85
2021/08/06 02:51:13;;;;;;;0.00;0.00;;;21.80;99.90;;;;;;5035814;28;20372;-85
2021/08/06 02:53:39;;;;;;;0.00;0.00;;;21.80;99.90;;;;;;5054172;28;20041;-84
2021/08/06 02:56:05;;;;;;;0.00;0.00;;;21.80;99.90;;;;;;5040497;28;20053;-87
2021/08/06 02:58:31;;;;;;;0.00;0.00;;;21.80;99.90;;;;;;5036586;28;20385;-84
2021/08/06 03:00:57;;;;;;;0.03;0.03;;;21.70;99.90;;;;;;5035755;28;20033;-84
2021/08/06 03:03:22;;;;;;;0.00;0.00;;;21.70;99.90;;;;;;5035824;28;20048;-86
2021/08/06 03:05:48;;;;;;;0.10;0.10;;;21.80;99.90;;;;;;5035698;28;20510;-85
2021/08/06 03:08:14;;;;;;;0.00;0.00;;;21.80;99.90;;;;;;5035947;28;20056;-87
2021/08/06 03:10:43;;;;;;;0.00;0.00;;;21.70;99.90;;;;;;5036094;28;20060;-88
2021/08/06 03:13:08;;;;;;;0.10;0.10;;;21.80;99.90;;;;;;5056363;28;20107;-87
2021/08/06 03:15:34;;;;;;;0.00;0.00;;;21.80;99.90;;;;;;5047260;28;20448;-86
2021/08/06 03:18:00;;;;;;;0.00;0.00;;;21.80;99.90;;;;;;5060402;28;20021;-87
2021/08/06 03:20:26;;;;;;;0.05;0.05;;;21.80;99.90;;;;;;5060900;28;20023;-86
2021/08/06 03:22:51;;;;;;;0.00;0.00;;;21.80;99.90;;;;;;5055597;28;20402;-85
2021/08/06 03:25:18;;;;;;;0.00;0.00;;;21.90;99.90;;;;;;5036077;28;20065;-85
2021/08/06 03:27:44;;;;;;;0.00;0.00;;;21.90;99.90;;;;;;5035477;28;20045;-87
2021/08/06 03:30:13;;;;;;;0.00;0.00;;;22.00;99.90;;;;;;5035058;28;20072;-85
2021/08/06 03:32:41;;;;;;;0.00;0.00;;;22.00;99.90;;;;;;5035306;28;20044;-89
2021/08/06 03:35:07;;;;;;;0.00;0.00;;;21.90;99.90;;;;;;5035345;28;20033;-86
2021/08/06 03:37:33;;;;;;;0.00;0.00;;;21.90;99.90;;;;;;5036416;28;20037;-85
2021/08/06 03:40:00;;;;;;;0.10;0.10;;;22.00;99.90;;;;;;5039221;28;20116;-87
2021/08/06 03:42:26;;;;;;;0.00;0.00;;;22.00;99.90;;;;;;5039151;28;20032;-86
2021/08/06 03:44:52;;;;;;;0.00;0.00;;;22.10;99.90;;;;;;5056865;28;20052;-85
2021/08/06 03:47:18;;;;;;;0.00;0.00;;;22.10;99.90;;;;;;5057070;28;20029;-87
2021/08/06 03:49:44;;;;;;;0.00;0.00;;;22.10;99.90;;;;;;5039432;28;20032;-87
2021/08/06 03:52:09;;;;;;;0.00;0.00;;;22.10;99.90;;;;;;5056954;28;20414;-86
2021/08/06 03:54:35;;;;;;;0.00;0.00;;;22.20;99.90;;;;;;5057284;28;20076;-86
2021/08/06 03:57:01;;;;;;;0.00;0.00;;;22.20;99.90;;;;;;5040312;28;20052;-88
2021/08/06 03:59:26;;;;;;;0.00;0.00;;;22.20;99.90;;;;;;5039084;28;20389;-88
2021/08/06 04:01:52;;;;;;;0.00;0.00;;;22.20;99.90;;;;;;5039088;28;20033;-87
2021/08/06 04:04:18;;;;;;;0.00;0.00;;;22.20;99.90;;;;;;5039143;28;20076;-84
2021/08/06 04:06:44;;;;;;;0.10;0.10;;;22.20;99.90;;;;;;5038931;28;20040;-86
2021/08/06 04:09:09;;;;;;;0.00;0.00;;;22.20;99.90;;;;;;5038953;28;20094;-85
2021/08/06 04:11:35;;;;;;;0.00;0.00;;;22.20;99.90;;;;;;5057854;28;20470;-84
2021/08/06 04:14:01;;;;;;;0.00;0.00;;;22.20;99.90;;;;;;5040001;28;20044;-85
2021/08/06 04:16:33;;;;;;;0.08;0.08;;;22.20;99.90;;;;;;5039277;28;20029;-87
2021/08/06 04:18:59;;;;;;;0.00;0.00;;;22.30;99.90;;;;;;5039596;28;20433;-85
2021/08/06 04:21:24;;;;;;;0.00;0.00;;;22.30;99.90;;;;;;5040901;28;20037;-84
2021/08/06 04:23:50;;;;;;;0.00;0.00;;;22.40;99.90;;;;;;5063335;28;20037;-85
2021/08/06 04:26:16;;;;;;;0.00;0.00;;;22.40;99.90;;;;;;5064140;28;20036;-84
2021/08/06 04:28:41;;;;;;;0.00;0.00;;;22.50;99.90;;;;;;5075040;28;20363;-84
2021/08/06 04:31:07;;;;;;;0.00;0.00;;;22.50;99.90;;;;;;5056879;28;20060;-88
2021/08/06 04:33:34;;;;;;;0.00;0.00;;;22.60;99.90;;;;;;5056612;28;20041;-85
2021/08/06 04:35:59;;;;;;;0.00;0.00;;;22.70;99.90;;;;;;5038612;28;20159;-85
2021/08/06 04:38:26;;;;;;;0.00;0.00;;;22.70;99.90;;;;;;5039592;28;20458;-84
2021/08/06 04:40:51;;;;;;;0.05;0.05;;;22.70;99.90;;;;;;5057122;28;20532;-84
2021/08/06 04:43:20;;;;;;;0.00;0.00;;;22.80;99.90;;;;;;5057119;28;20045;-85
2021/08/06 04:45:46;;;;;;;0.00;0.00;;;22.80;99.90;;;;;;5056212;28;20032;-87
2021/08/06 04:48:12;;;;;;;0.00;0.00;;;22.90;99.90;;;;;;5038570;28;20071;-88
2021/08/06 04:50:38;;;;;;;0.00;0.00;;;22.80;99.90;;;;;;5037335;28;20033;-85
2021/08/06 04:53:04;;;;;;;0.00;0.00;;;22.80;99.90;;;;;;5038191;28;20129;-87
2021/08/06 04:55:30;;;;;;;0.00;0.00;;;22.70;99.90;;;;;;5039840;28;20440;-85
2021/08/06 04:57:59;;;;;;;0.00;0.00;;;22.70;99.90;;;;;;5053779;28;20021;-84
2021/08/06 05:00:25;;;;;;;0.00;0.00;;;22.80;99.90;;;;;;5064022;28;20031;-86
2021/08/06 05:02:51;;;;;;;0.10;0.10;;;22.80;99.90;;;;;;5079633;28;20045;-84
2021/08/06 05:05:17;;;;;;;0.00;0.00;;;22.90;99.90;;;;;;5045780;28;20037;-87
2021/08/06 05:07:52;;;;;;;0.00;0.00;;;23.00;99.90;;;;;;5038715;28;20470;-88
2021/08/06 05:10:20;;;;;;;0.00;0.00;;;23.10;99.90;;;;;;5054738;28;20022;-88
2021/08/06 05:12:46;;;;;;;0.00;0.00;;;23.10;99.90;;;;;;5055326;28;20124;-86
2021/08/06 05:15:12;;;;;;;0.00;0.00;;;23.10;99.90;;;;;;5037405;28;20458;-90
2021/08/06 05:17:38;;;;;;;0.10;0.10;;;23.20;99.90;;;;;;5055531;28;20037;-89
2021/08/06 05:20:05;;;;;;;0.05;0.05;;;23.30;99.90;;;;;;5037522;28;20064;-89
2021/08/06 05:22:31;;;;;;;0.10;0.10;;;23.40;99.90;;;;;;5037163;28;20041;-89
2021/08/06 05:24:57;;;;;;;0.00;0.00;;;23.50;99.90;;;;;;5037533;28;20103;-88
2021/08/06 05:27:23;;;;;;;0.00;0.00;;;23.60;99.90;;;;;;5060796;28;20019;-87
2021/08/06 05:29:48;;;;;;;0.10;0.10;;;23.70;99.90;;;;;;5053219;28;20140;-88
2021/08/06 05:32:14;;;;;;;0.00;0.00;;;23.80;99.20;;;;;;5037196;28;20033;-89
2021/08/06 05:34:40;;;;;;;0.00;0.00;;;24.00;97.90;;;;;;5036709;28;20033;-88
2021/08/06 05:37:06;;;;;;;0.00;0.00;;;24.10;97.00;;;;;;5036708;28;20066;-88
2021/08/06 05:39:32;;;;;;;0.03;0.03;;;24.40;95.40;;;;;;5037218;28;20608;-88
2021/08/06 05:41:57;;;;;;;0.00;0.00;;;24.60;94.60;;;;;;5036815;28;20053;-89
2021/08/06 05:44:23;;;;;;;0.00;0.00;;;24.90;92.50;;;;;;5036750;28;20041;-90
2021/08/06 05:46:49;;;;;;;0.00;0.00;;;25.10;90.80;;;;;;5037139;28;20123;-87
2021/08/06 05:49:15;;;;;;;0.00;0.00;;;25.10;90.50;;;;;;5037076;28;20033;-87
2021/08/06 05:51:40;;;;;;;0.00;0.00;;;25.30;88.30;;;;;;5053614;28;20040;-89
2021/08/06 05:54:06;;;;;;;0.00;0.00;;;25.30;88.40;;;;;;5036168;28;20509;-89
2021/08/06 05:56:32;;;;;;;0.00;0.00;;;25.40;88.60;;;;;;5055836;28;20032;-89
2021/08/06 05:58:58;;;;;;;0.00;0.00;;;25.50;85.80;;;;;;5054612;28;20041;-88
2021/08/06 06:01:24;;;;;;;0.10;0.10;;;25.60;84.50;;;;;;5035504;28;20445;-88
2021/08/06 06:03:49;;;;;;;0.00;0.00;;;25.60;84.60;;;;;;5034963;28;20045;-86
2021/08/06 06:06:15;;;;;;;0.00;0.00;;;25.70;83.70;;;;;;5036787;28;20055;-89
2021/08/06 06:08:41;;;;;;;0.00;0.00;;;25.80;84.20;;;;;;5053984;28;20041;-88
2021/08/06 06:11:07;;;;;;;0.00;0.00;;;25.80;83.30;;;;;;5035866;28;20120;-88
2021/08/06 06:13:32;;;;;;;0.00;0.00;;;25.80;83.10;;;;;;5036211;28;20486;-88
2021/08/06 06:15:58;;;;;;;0.00;0.00;;;25.80;83.30;;;;;;5035467;28;20036;-86
2021/08/06 06:18:24;;;;;;;0.00;0.00;;;25.70;82.80;;;;;;5058842;28;20060;-88
2021/08/06 06:20:51;;;;;;;0.00;0.00;;;25.70;83.80;;;;;;5037014;28;20029;-88
2021/08/06 06:23:20;;;;;;;0.00;0.00;;;25.80;83.30;;;;;;5057551;28;20029;-89
2021/08/06 06:25:46;;;;;;;0.00;0.00;;;25.90;83.20;;;;;;5061149;28;20017;-90
2021/08/06 06:28:12;;;;;;;0.00;0.00;;;25.90;82.40;;;;;;5075334;28;20052;-88
2021/08/06 06:30:38;;;;;;;0.00;0.00;;;25.80;82.70;;;;;;5054859;28;20021;-90
2021/08/06 06:33:04;;;;;;;0.00;0.00;;;25.80;82.60;;;;;;5035534;28;20085;-89
2021/08/06 06:35:31;;;;;;;0.00;0.00;;;25.70;83.10;;;;;;5052807;28;20116;-89
2021/08/06 06:37:57;;;;;;;0.00;0.00;;;25.70;82.30;;;;;;5035168;28;20033;-88
2021/08/06 06:40:24;;;;;;;0.00;0.00;;;25.50;82.70;;;;;;5053891;28;20591;-90
2021/08/06 06:42:50;;;;;;;0.00;0.00;;;25.40;83.50;;;;;;5035362;28;20183;-89
2021/08/06 06:45:16;;;;;;;0.00;0.00;;;25.50;83.90;;;;;;5041453;28;20131;-88
2021/08/06 06:47:45;;;;;;;0.00;0.00;;;25.60;83.50;;;;;;5037154;28;20040;-88
2021/08/06 06:50:14;;;;;;;0.00;0.00;;;25.70;83.70;;;;;;5035907;28;20039;-87
2021/08/06 06:52:45;;;;;;;0.00;0.00;;;25.80;84.00;;;;;;5038482;28;20532;-89
2021/08/06 06:55:17;;;;;;;0.00;0.00;;;25.90;84.00;;;;;;5037683;28;20075;-87
2021/08/06 06:58:00;;;;;;;0.00;0.00;;;25.90;84.80;;;;;;5038731;28;20064;-87
2021/08/06 07:00:29;;;;;;;0.00;0.00;;;26.00;84.30;;;;;;5019522;28;20053;-88
2021/08/06 07:02:55;;;;;;;0.00;0.00;;;26.00;84.20;;;;;;5035260;28;20092;-91
2021/08/06 07:05:24;;;;;;;0.00;0.00;;;25.70;83.30;;;;;;5053201;22;20072;-89
2021/08/06 07:07:50;;;;;;;0.00;0.00;;;25.50;84.20;;;;;;5020052;28;20045;-89
2021/08/06 07:10:16;;;;;;;0.00;0.00;;;25.30;84.80;;;;;;5036121;28;20095;-90
2021/08/06 07:12:51;;;;;;;0.00;0.00;;;25.20;85.40;;;;;;5035568;28;20036;-88
2021/08/06 07:15:21;;;;;;;0.00;0.00;;;25.10;85.70;;;;;;5035704;28;20402;-90
2021/08/06 07:17:46;;;;;;;0.00;0.00;;;25.10;85.80;;;;;;5036553;28;20395;-89
2021/08/06 07:20:14;;;;;;;0.00;0.00;;;25.00;84.00;;;;;;5056591;28;20036;-89
2021/08/06 07:22:39;;;;;;;0.00;0.00;;;24.90;85.10;;;;;;5042350;28;20029;-89
2021/08/06 07:25:08;;;;;;;0.00;0.00;;;24.80;86.60;;;;;;5053983;28;20061;-89
2021/08/06 07:27:34;;;;;;;0.00;0.00;;;24.60;88.40;;;;;;5037195;28;20029;-88
2021/08/06 07:29:59;;;;;;;0.00;0.00;;;24.40;92.20;;;;;;5035623;28;20032;-89
2021/08/06 07:32:28;;;;;;;0.00;0.00;;;24.00;94.60;;;;;;5053552;28;20036;-90
2021/08/06 07:34:57;;;;;;;0.00;0.00;;;23.60;96.90;;;;;;5036141;28;20052;-90
2021/08/06 07:37:28;;;;;;;0.00;0.00;;;23.20;99.90;;;;;;5048234;28;20033;-89
2021/08/06 07:39:57;;;;;;;0.00;0.00;;;22.90;99.90;;;;;;5056241;28;20052;-87
2021/08/06 07:42:31;;;;;;;0.00;0.00;;;22.60;99.90;;;;;;5037013;28;20037;-88
2021/08/06 07:44:57;;;;;;;0.00;0.00;;;22.40;99.90;;;;;;5035937;28;20140;-88
2021/08/06 07:47:23;;;;;;;0.00;0.00;;;22.20;99.90;;;;;;5036332;28;20520;-91
2021/08/06 07:49:52;;;;;;;0.00;0.00;;;22.10;99.90;;;;;;5035433;28;20144;-90
2021/08/06 07:52:17;;;;;;;0.00;0.00;;;22.20;99.90;;;;;;5035433;28;20059;-89
2021/08/06 07:54:43;;;;;;;0.08;0.08;;;22.30;99.90;;;;;;5049512;22;20037;-89
2021/08/06 07:57:11;;;;;;;0.00;0.00;;;22.50;99.90;;;;;;5060030;28;20452;-88
2021/08/06 07:59:38;;;;;;;0.00;0.00;;;22.70;99.90;;;;;;5057618;28;20097;-90
2021/08/06 08:02:04;;;;;;;0.10;0.10;;;22.90;99.90;;;;;;5056621;28;20056;-87
2021/08/06 08:04:30;;;;;;;0.10;0.10;;;22.90;99.90;;;;;;5056974;28;20044;-89
2021/08/06 08:06:56;;;;;;;0.00;0.00;;;23.00;99.90;;;;;;5059660;28;20028;-93
2021/08/06 08:09:23;;;;;;;0.00;0.00;;;23.00;99.90;;;;;;5059497;28;20063;-92
2021/08/06 08:11:49;;;;;;;0.00;0.00;;;23.10;99.90;;;;;;5058553;28;20037;-89
2021/08/06 08:14:15;;;;;;;0.00;0.00;;;23.10;99.90;;;;;;5075651;28;20104;-88
2021/08/06 08:16:41;;;;;;;0.00;0.00;;;23.10;99.90;;;;;;5054817;28;20033;-92
2021/08/06 08:19:07;;;;;;;0.10;0.10;;;23.10;99.90;;;;;;5056845;28;20064;-91
2021/08/06 08:21:33;;;;;;;0.00;0.00;;;23.20;99.90;;;;;;5056294;28;20117;-90
2021/08/06 08:23:59;;;;;;;0.00;0.00;;;23.20;99.90;;;;;;5057380;28;20044;-90
2021/08/06 08:26:25;;;;;;;0.00;0.00;;;23.40;99.90;;;;;;5062779;28;20040;-90
2021/08/06 08:28:51;;;;;;;0.00;0.00;;;23.50;99.90;;;;;;5045228;28;20029;-89
2021/08/06 08:31:17;;;;;;;0.05;0.05;;;23.70;99.90;;;;;;5061962;28;20032;-90
2021/08/06 08:33:45;;;;;;;0.00;0.00;;;24.00;99.90;;;;;;5061561;28;20040;-92
2021/08/06 08:36:11;;;;;;;0.10;0.10;;;24.40;99.90;;;;;;5063169;28;20135;-88
2021/08/06 08:38:36;;;;;;;0.00;0.00;;;25.00;99.90;;;;;;5061206;28;20056;-93
2021/08/06 08:41:04;;;;;;;0.00;0.00;;;25.60;96.60;;;;;;5060561;28;20044;-91
2021/08/06 08:43:29;;;;;;;0.00;0.00;;;26.10;92.70;;;;;;5043118;28;20056;-91
2021/08/06 08:45:57;;;;;;;0.00;0.00;;;26.80;92.00;;;;;;5061022;28;20111;-91
2021/08/06 08:48:24;;;;;;;0.00;0.00;;;27.60;89.00;;;;;;5061280;28;20037;-91
2021/08/06 08:50:54;;;;;;;0.00;0.00;;;28.10;82.30;;;;;;5080048;28;20064;-92
2021/08/06 08:53:21;;;;;;;0.10;0.10;;;28.50;77.50;;;;;;5061792;28;20025;-91
2021/08/06 08:55:46;;;;;;;0.00;0.00;;;29.10;79.30;;;;;;5059213;28;20056;-92
2021/08/06 08:58:13;;;;;;;0.00;0.00;;;29.80;76.00;;;;;;5058204;28;20033;-89
2021/08/06 09:00:43;;;;;;;0.00;0.00;;;30.50;71.60;;;;;;5058639;28;20036;-90
2021/08/06 09:03:29;;;;;;;0.08;0.08;;;30.90;68.80;;;;;;5059327;28;20028;-92
2021/08/06 09:05:55;;;;;;;0.00;0.00;;;31.20;69.60;;;;;;5063999;28;20076;-89
2021/08/06 09:08:21;;;;;;;0.00;0.00;;;31.70;66.30;;;;;;5063303;28;20455;-90
2021/08/06 09:10:46;;;;;;;0.00;0.00;;;31.70;64.50;;;;;;5079499;28;20111;-90
2021/08/06 09:13:12;;;;;;;0.00;0.00;;;31.50;64.00;;;;;;5078354;28;20024;-90
2021/08/06 09:15:54;;;;;;;0.00;0.00;;;31.20;64.50;;;;;;5066353;28;20040;-91
2021/08/06 09:18:23;;;;;;;0.00;0.00;;;30.80;65.80;;;;;;5062767;28;20512;-94
2021/08/06 09:20:50;;;;;;;0.00;0.00;;;30.50;62.00;;;;;;5078183;28;20628;-91
2021/08/06 09:23:39;;;;;;;0.00;0.00;;;30.20;60.00;;;;;;5061466;28;20044;-91
2021/08/06 09:26:06;;;;;;;0.00;0.00;;;30.00;61.30;;;;;;5058493;28;20127;-91
2021/08/06 09:28:32;;;;;;;0.00;0.00;;;29.90;63.80;;;;;;5059049;28;20029;-89
2021/08/06 09:31:13;;;;;;;0.00;0.00;;;29.80;62.80;;;;;;5077037;28;20481;-89
2021/08/06 09:33:42;;;;;;;0.00;0.00;;;29.60;62.50;;;;;;5058771;28;20040;-90
2021/08/06 09:36:15;;;;;;;0.00;0.00;;;29.50;60.10;;;;;;5075663;28;20042;-87
2021/08/06 09:38:41;;;;;;;0.00;0.00;;;29.40;59.90;;;;;;5070002;28;20043;-91
2021/08/06 09:41:07;;;;;;;0.00;0.00;;;29.40;61.40;;;;;;5063873;28;20032;-91
2021/08/06 09:43:33;;;;;;;0.00;0.00;;;29.50;60.30;;;;;;5061857;28;20478;-91
2021/08/06 09:45:59;;;;;;;0.00;0.00;;;29.70;60.90;;;;;;5062076;28;20079;-92
2021/08/06 09:48:26;;;;;;;0.00;0.00;;;29.80;59.20;;;;;;5061334;28;20033;-88
2021/08/06 09:50:52;;;;;;;0.00;0.00;;;30.00;58.90;;;;;;5061411;28;20043;-90
2021/08/06 09:53:25;;;;;;;0.00;0.00;;;30.10;57.90;;;;;;5077538;28;20088;-90
2021/08/06 09:55:52;;;;;;;0.00;0.00;;;30.10;59.10;;;;;;5060542;28;20055;-90
2021/08/06 09:58:22;;;;;;;0.00;0.00;;;30.10;58.50;;;;;;5060069;28;20036;-90
2021/08/06 10:00:51;;;;;;;0.00;0.00;;;30.10;58.80;;;;;;5058582;28;20472;-90
2021/08/06 10:03:29;;;;;;;0.00;0.00;;;30.10;58.60;;;;;;5059498;28;20078;-92
2021/08/06 10:06:12;;;;;;;0.00;0.00;;;30.10;58.90;;;;;;5059129;28;20040;-90
2021/08/06 10:08:38;;;;;;;0.00;0.00;;;30.00;59.20;;;;;;5058191;28;20060;-90
2021/08/06 10:11:04;;;;;;;0.00;0.00;;;29.80;59.50;;;;;;5060971;28;20055;-92
2021/08/06 10:13:30;;;;;;;0.00;0.00;;;29.80;60.50;;;;;;5077464;28;20025;-91
2021/08/06 10:15:57;;;;;;;0.30;0.10;;;29.90;59.10;;;;;;5063310;28;20063;-88
2021/08/06 10:18:23;;;;;;;0.00;0.00;;;30.00;60.00;;;;;;5059626;28;20036;-91
2021/08/06 10:20:50;;;;;;;0.00;0.00;;;30.00;60.20;;;;;;5047981;28;20090;-90
2021/08/06 10:23:16;;;;;;;0.00;0.00;;;30.20;60.20;;;;;;5060138;28;20036;-92
2021/08/06 10:25:42;;;;;;;0.00;0.00;;;30.30;60.00;;;;;;5059063;28;20111;-90
2021/08/06 10:28:08;;;;;;;0.00;0.00;;;30.60;59.10;;;;;;5059235;28;20086;-90
2021/08/06 10:30:38;;;;;;;0.00;0.00;;;30.90;57.20;;;;;;5076024;28;20392;-90
2021/08/06 10:33:09;;;;;;;0.00;0.00;;;31.40;57.60;;;;;;5077258;28;20025;-93
2021/08/06 10:35:47;;;;;;;0.00;0.00;;;32.10;59.00;;;;;;5061502;28;20047;-87
2021/08/06 10:38:34;;;;;;;0.00;0.00;;;32.70;56.00;;;;;;5078421;28;20032;-93
2021/08/06 10:41:01;;;;;;;0.00;0.00;;;33.20;56.60;;;;;;5044007;28;20040;-90
2021/08/06 10:43:38;;;;;;;0.00;0.00;;;33.90;56.90;;;;;;5062227;28;20040;-91
2021/08/06 10:46:04;;;;;;;0.00;0.00;;;34.60;56.20;;;;;;5057995;28;20045;-91
2021/08/06 10:48:41;;;;;;;0.00;0.00;;;35.70;59.00;;;;;;5057486;28;20035;-91
2021/08/06 10:51:15;;;;;;;0.03;0.03;;;37.10;55.00;;;;;;5059768;28;20075;-92
2021/08/06 10:53:43;;;;;;;0.10;0.10;;;37.90;50.00;;;;;;5062488;28;20409;-90
2021/08/06 10:56:18;;;;;;;0.00;0.00;;;38.40;51.30;;;;;;5061346;28;20044;-93
2021/08/06 10:58:50;;;;;;;0.10;0.10;;;39.10;50.90;;;;;;5056421;28;20436;-88
2021/08/06 11:01:28;;;;;;;0.10;0.10;;;39.60;47.60;;;;;;5058497;28;20044;-91
2021/08/06 11:03:59;;;;;;;0.00;0.00;;;39.80;47.00;;;;;;5074336;28;20039;-91
2021/08/06 11:06:41;;;;;;;0.10;0.10;;;40.10;47.40;;;;;;5058908;28;20036;-91
2021/08/06 11:09:11;;;;;;;;;;;40.50;46.70;;;;;;5060783;28;20090;-90
2021/08/06 11:11:46;;;;;;;0.10;0.10;;;40.30;45.70;;;;;;5058723;28;19904;-92
2021/08/06 11:14:14;;;;;;;0.00;0.00;;;39.80;45.20;;;;;;5058563;28;20079;-90
2021/08/06 11:17:06;;;;;;;0.00;0.00;;;39.10;43.90;;;;;;5077782;28;20059;-91
2021/08/06 11:19:39;;;;;;;0.00;0.00;;;38.10;44.50;;;;;;5060712;28;20047;-91
2021/08/06 11:22:19;;;;;;;0.00;0.00;;;36.90;44.60;;;;;;5061541;28;20055;-89
2021/08/06 11:24:54;;;;;;;0.00;0.00;;;35.90;45.70;;;;;;5059225;28;20052;-93
2021/08/06 11:27:22;;;;;;;0.00;0.00;;;34.90;47.10;;;;;;5061082;28;20036;-89
2021/08/06 11:30:03;;;;;;;0.00;0.00;;;34.30;47.90;;;;;;5058837;28;20074;-91
2021/08/06 11:32:31;;;;;;;0.00;0.00;;;33.90;47.80;;;;;;5058573;28;20371;-90
2021/08/06 11:34:59;;;;;;;0.00;0.00;;;33.40;47.90;;;;;;5046329;28;20037;-88
2021/08/06 11:37:45;;;;;;;0.00;0.00;;;33.00;48.60;;;;;;5059074;28;20087;-90
2021/08/06 11:40:12;;;;;;;0.00;0.00;;;32.60;49.10;;;;;;5060659;28;20064;-89
2021/08/06 11:42:39;;;;;;;0.00;0.00;;;32.20;49.80;;;;;;5077231;28;20109;-90
2021/08/06 11:45:08;;;;;;;0.00;0.00;;;31.90;50.40;;;;;;5061306;28;20052;-89
2021/08/06 11:47:35;;;;;;;0.00;0.00;;;31.50;50.70;;;;;;5043049;28;20425;-89
2021/08/06 11:50:01;;;;;;;0.00;0.00;;;31.30;51.20;;;;;;5059489;28;20041;-92
2021/08/06 11:52:44;;;;;;;0.00;0.00;;;31.00;51.70;;;;;;5059263;28;20497;-93
2021/08/06 11:55:12;;;;;;;0.00;0.00;;;30.70;53.00;;;;;;5060232;28;20051;-90
2021/08/06 11:57:51;;;;;;;0.00;0.00;;;30.50;54.00;;;;;;5059743;28;20043;-91
2021/08/06 12:00:26;;;;;;;0.00;0.00;;;30.20;56.20;;;;;;5070822;28;20040;-91
2021/08/06 12:03:15;;;;;;;0.00;0.00;;;29.90;57.10;;;;;;5063822;28;20481;-91
2021/08/06 12:05:49;;;;;;;0.00;0.00;;;29.50;58.40;;;;;;5064265;28;20048;-89
2021/08/06 12:08:17;;;;;;;0.00;0.00;;;29.20;60.90;;;;;;5063241;28;20029;-91
2021/08/06 12:10:44;;;;;;;0.00;0.00;;;28.80;61.50;;;;;;5062700;28;20040;-93
2021/08/06 12:13:13;;;;;;;0.00;0.00;;;28.40;62.50;;;;;;5065580;28;20032;-91
2021/08/06 12:15:39;;;;;;;0.00;0.00;;;28.00;65.00;;;;;;5064152;28;20037;-91
2021/08/06 12:18:19;;;;;;;0.00;0.00;;;27.60;66.20;;;;;;5069566;28;20033;-92
2021/08/06 12:21:01;;;;;;;0.00;0.00;;;27.20;68.80;;;;;;5063157;28;20067;-92
2021/08/06 12:23:27;;;;;;;0.00;0.00;;;26.80;71.10;;;;;;5066592;28;20071;-91
2021/08/06 12:26:39;;;;;;;0.00;0.00;;;26.40;73.30;;;;;;5065720;28;20036;-92
2021/08/06 12:29:15;;;;;;;0.00;0.00;;;26.00;76.50;;;;;;5064051;28;20489;-91
2021/08/06 12:31:54;;;;;;;0.00;0.00;;;25.50;77.70;;;;;;5060939;28;20489;-89
2021/08/06 12:34:22;;;;;;;0.00;0.00;;;25.10;82.10;;;;;;5059837;28;20429;-90
2021/08/06 12:37:10;;;;;;;0.00;0.00;;;24.50;93.40;;;;;;5057776;28;20038;-88
2021/08/06 12:39:53;;;;;;;0.00;0.00;;;23.70;99.90;;;;;;5057646;28;20115;-88
2021/08/06 12:42:35;;;;;;;0.10;0.10;;;23.20;99.90;;;;;;5064476;28;20048;-91
2021/08/06 12:45:10;;;;;;;0.00;0.00;;;22.80;99.90;;;;;;5066542;28;20490;-89
2021/08/06 12:47:54;;;;;;;0.00;0.00;;;22.50;99.90;;;;;;5064889;28;20048;-91
2021/08/06 12:50:24;;;;;;;0.10;0.10;;;22.20;99.90;;;;;;5057028;28;20036;-91
2021/08/06 12:53:02;;;;;;;0.00;0.00;;;22.00;99.90;;;;;;5057626;28;20037;-92
2021/08/06 12:55:30;;;;;;;0.00;0.00;;;21.90;99.90;;;;;;5058360;28;20520;-92